Time;durP1;ratioP1;P1;durP2;ratioP2;P2;SDS_P1;SDS_P2;PMS_P1;PMS_P2;Temp;Humidity;BMP_temperature;BMP_pressure;BME280_temperature;BME280_humidity;BME280_pressure;Samples;Min_cycle;Max_cycle;Signal;HPM_P1;HPM_P2
2021/08/27 00:00:08;;;;;;;1999.90;999.90;;;;;;;;;;5086189;28;20451;-84
2021/08/27 00:02:36;;;;;;;1999.90;999.90;;;;;;;;;;5091127;28;20475;-84
2021/08/27 00:05:03;;;;;;;1999.90;999.90;;;;;;;;;;5080180;28;20439;-83
2021/08/27 00:07:31;;;;;;;1999.90;999.90;;;;;;;;;;5080111;28;21049;-83
2021/08/27 00:09:58;;;;;;;1999.90;999.90;;;;;;;;;;5077140;28;20684;-83
2021/08/27 00:12:25;;;;;;;1999.90;999.90;;;;;;;;;;5090312;28;20493;-85
2021/08/27 00:14:52;;;;;;;1999.90;999.90;;;;;;;;;;5104309;28;20511;-83
2021/08/27 00:17:28;;;;;;;1999.90;999.90;;;;;;;;;;5106166;28;20471;-85
2021/08/27 00:19:57;;;;;;;1999.90;999.90;;;;;;;;;;5112476;28;20452;-84
2021/08/27 00:22:25;;;;;;;1999.90;999.90;;;;;;;;;;5115562;28;20454;-84
2021/08/27 00:24:52;;;;;;;1999.90;999.90;;;;;;;;;;5115704;28;20448;-84
2021/08/27 00:27:20;;;;;;;1999.90;999.90;;;;;;;;;;5111468;28;20455;-85
2021/08/27 00:29:47;;;;;;;1999.90;999.90;;;;;;;;;;5112104;28;20467;-85
2021/08/27 00:32:14;;;;;;;1999.90;999.90;;;;;;;;;;5094428;28;20573;-87
2021/08/27 00:34:41;;;;;;;1999.90;999.90;;;;;;;;;;5094564;28;20477;-85
2021/08/27 00:37:10;;;;;;;1999.90;999.90;;;;;;;;;;5094331;28;20448;-85
2021/08/27 00:39:38;;;;;;;1999.90;999.90;;;;;;;;;;5105890;28;20433;-84
2021/08/27 00:42:05;;;;;;;1999.90;999.90;;;;;;;;;;5109624;28;20518;-85
2021/08/27 00:44:32;;;;;;;1999.90;999.90;;;;;;;;;;5119482;28;20433;-83
2021/08/27 00:46:59;;;;;;;1999.90;999.90;;;;;;;;;;5110396;28;20504;-86
2021/08/27 00:49:26;;;;;;;1999.90;999.90;;;;;;;;;;5120496;28;20439;-85
2021/08/27 00:51:53;;;;;;;1999.90;999.90;;;;;;;;;;5119948;28;20533;-84
2021/08/27 00:54:22;;;;;;;1999.90;999.90;;;;;;;;;;5120509;28;20462;-86
2021/08/27 00:56:50;;;;;;;1999.90;999.90;;;;;;;;;;5119791;28;20448;-84
2021/08/27 00:59:17;;;;;;;1999.90;999.90;;;;;;;;;;5112564;28;20442;-84
2021/08/27 01:01:44;;;;;;;1999.90;999.90;;;;;;;;;;5108980;28;20533;-83
2021/08/27 01:04:11;;;;;;;1999.90;999.90;;;;;;;;;;5107743;28;20448;-83
2021/08/27 01:06:40;;;;;;;1999.90;999.90;;;;;;;;;;5108401;28;20531;-84
2021/08/27 01:09:10;;;;;;;1999.90;999.90;;;;;;;;;;5107545;28;20524;-84
2021/08/27 01:11:41;;;;;;;1999.90;999.90;;;;;;;;;;5116614;28;20465;-84
2021/08/27 01:14:11;;;;;;;1999.90;999.90;;;;;;;;;;5119203;28;20482;-82
2021/08/27 01:16:42;;;;;;;1999.90;999.90;;;;;;;;;;5119550;28;20458;-86
2021/08/27 01:19:21;;;;;;;1999.90;999.90;;;;;;;;;;5119552;28;20457;-84
2021/08/27 01:21:57;;;;;;;1999.90;999.90;;;;;;;;;;5119100;28;20462;-84
2021/08/27 01:24:25;;;;;;;1999.90;999.90;;;;;;;;;;5110204;28;20442;-83
2021/08/27 01:26:56;;;;;;;1999.90;999.90;;;;;;;;;;5107867;28;20456;-83
2021/08/27 01:29:29;;;;;;;1999.90;999.90;;;;;;;;;;5108121;28;20427;-82
2021/08/27 01:32:03;;;;;;;1999.90;999.90;;;;;;;;;;5099652;28;20492;-82
2021/08/27 01:34:41;;;;;;;1999.90;999.90;;;;;;;;;;5099757;28;20438;-83
2021/08/27 01:37:11;;;;;;;1999.90;999.90;;;;;;;;;;5101840;28;20420;-82
2021/08/27 01:39:39;;;;;;;1999.90;999.90;;;;;;;;;;5101692;28;20454;-83
2021/08/27 01:42:08;;;;;;;1999.90;999.90;;;;;;;;;;5100596;28;20479;-83
2021/08/27 01:44:35;;;;;;;1999.90;999.90;;;;;;;;;;5101565;28;20474;-84
2021/08/27 01:47:05;;;;;;;1999.90;999.90;;;;;;;;;;5099594;28;20455;-82
2021/08/27 01:49:33;;;;;;;1999.90;999.90;;;;;;;;;;5094859;28;20448;-81
2021/08/27 01:52:03;;;;;;;1999.90;999.90;;;;;;;;;;5116881;28;20494;-83
2021/08/27 01:54:31;;;;;;;1999.90;999.90;;;;;;;;;;5117575;28;20461;-83
2021/08/27 01:56:58;;;;;;;1999.90;999.90;;;;;;;;;;5117305;28;20461;-82
2021/08/27 01:59:27;;;;;;;1999.90;999.90;;;;;;;;;;5117412;28;20454;-80
2021/08/27 02:01:54;;;;;;;1999.90;999.90;;;;;;;;;;5117516;28;20486;-84
2021/08/27 02:04:22;;;;;;;1999.90;999.90;;;;;;;;;;5117267;28;20472;-82
2021/08/27 02:06:49;;;;;;;1999.90;999.90;;;;;;;;;;5117192;28;20449;-84
2021/08/27 02:09:19;;;;;;;1999.90;999.90;;;;;;;;;;5117112;28;20508;-85
2021/08/27 02:11:47;;;;;;;1999.90;999.90;;;;;;;;;;5118019;28;21113;-82
2021/08/27 02:14:15;;;;;;;1999.90;999.90;;;;;;;;;;5118547;28;20430;-82
2021/08/27 02:16:42;;;;;;;1999.90;999.90;;;;;;;;;;5118068;28;20477;-84
2021/08/27 02:19:09;;;;;;;1999.90;999.90;;;;;;;;;;5118249;28;20505;-82
2021/08/27 02:21:41;;;;;;;1999.90;999.90;;;;;;;;;;5117829;28;20608;-83
2021/08/27 02:24:10;;;;;;;1999.90;999.90;;;;;;;;;;5117943;28;20461;-81
2021/08/27 02:26:39;;;;;;;1999.90;999.90;;;;;;;;;;5118089;28;20511;-84
2021/08/27 02:29:06;;;;;;;1999.90;999.90;;;;;;;;;;5118336;28;20430;-83
2021/08/27 02:31:34;;;;;;;1999.90;999.90;;;;;;;;;;5118075;28;20485;-84
2021/08/27 02:34:01;;;;;;;1999.90;999.90;;;;;;;;;;5118578;28;20455;-84
2021/08/27 02:36:28;;;;;;;1999.90;999.90;;;;;;;;;;5118176;28;20454;-84
2021/08/27 02:38:57;;;;;;;1999.90;999.90;;;;;;;;;;5118365;28;20686;-85
2021/08/27 02:41:24;;;;;;;1999.90;999.90;;;;;;;;;;5117727;28;20517;-84
2021/08/27 02:43:53;;;;;;;1999.90;999.90;;;;;;;;;;5117893;28;20490;-83
2021/08/27 02:46:20;;;;;;;1999.90;999.90;;;;;;;;;;5117347;28;20454;-85
2021/08/27 02:48:47;;;;;;;1999.90;999.90;;;;;;;;;;5118339;28;20455;-83
2021/08/27 02:51:16;;;;;;;1999.90;999.90;;;;;;;;;;5117610;28;20652;-84
2021/08/27 02:53:45;;;;;;;1999.90;999.90;;;;;;;;;;5117912;28;20432;-85
2021/08/27 02:56:15;;;;;;;1999.90;999.90;;;;;;;;;;5117243;28;20465;-82
2021/08/27 02:58:47;;;;;;;1999.90;999.90;;;;;;;;;;5117812;28;20450;-85
2021/08/27 03:01:18;;;;;;;1999.90;999.90;;;;;;;;;;5116964;28;20474;-84
2021/08/27 03:03:49;;;;;;;1999.90;999.90;;;;;;;;;;5117519;28;20529;-85
2021/08/27 03:06:21;;;;;;;1999.90;999.90;;;;;;;;;;5116768;28;20451;-85
2021/08/27 03:08:50;;;;;;;1999.90;999.90;;;;;;;;;;5117655;28;20478;-84
2021/08/27 03:11:21;;;;;;;1999.90;999.90;;;;;;;;;;5117410;28;20459;-84
2021/08/27 03:13:50;;;;;;;1999.90;999.90;;;;;;;;;;5117397;28;20446;-84
2021/08/27 03:16:19;;;;;;;1999.90;999.90;;;;;;;;;;5117380;28;20517;-85
2021/08/27 03:18:51;;;;;;;1999.90;999.90;;;;;;;;;;5117303;28;20437;-82
2021/08/27 03:21:20;;;;;;;1999.90;999.90;;;;;;;;;;5117055;28;20528;-84
2021/08/27 03:23:50;;;;;;;1999.90;999.90;;;;;;;;;;5108303;28;20451;-82
2021/08/27 03:26:20;;;;;;;1999.90;999.90;;;;;;;;;;5100230;28;20468;-83
2021/08/27 03:28:50;;;;;;;1999.90;999.90;;;;;;;;;;5101096;28;20524;-83
2021/08/27 03:31:19;;;;;;;1999.90;999.90;;;;;;;;;;5098256;28;20564;-83
2021/08/27 03:33:47;;;;;;;1999.90;999.90;;;;;;;;;;5104274;28;20937;-83
2021/08/27 03:36:14;;;;;;;1999.90;999.90;;;;;;;;;;5100552;28;20439;-82
2021/08/27 03:38:41;;;;;;;1999.90;999.90;;;;;;;;;;5100655;28;20854;-83
2021/08/27 03:41:09;;;;;;;1999.90;999.90;;;;;;;;;;5099409;28;20988;-82
2021/08/27 03:43:36;;;;;;;1999.90;999.90;;;;;;;;;;5101219;28;20451;-83
2021/08/27 03:46:03;;;;;;;1999.90;999.90;;;;;;;;;;5099340;28;20522;-83
2021/08/27 03:48:32;;;;;;;1999.90;999.90;;;;;;;;;;5097918;28;20444;-83
2021/08/27 03:50:59;;;;;;;1999.90;999.90;;;;;;;;;;5097792;28;21053;-83
2021/08/27 03:53:27;;;;;;;1999.90;999.90;;;;;;;;;;5099832;28;20490;-83
2021/08/27 03:55:55;;;;;;;1999.90;999.90;;;;;;;;;;5099967;28;20540;-82
2021/08/27 03:58:23;;;;;;;1999.90;999.90;;;;;;;;;;5100475;28;20440;-82
2021/08/27 04:00:51;;;;;;;1999.90;999.90;;;;;;;;;;5101988;28;20511;-83
2021/08/27 04:03:20;;;;;;;1999.90;999.90;;;;;;;;;;5112711;28;20480;-82
2021/08/27 04:06:02;;;;;;;1999.90;999.90;;;;;;;;;;5096144;28;20448;-81
2021/08/27 04:08:29;;;;;;;1999.90;999.90;;;;;;;;;;5097877;28;20485;-83
2021/08/27 04:10:56;;;;;;;1999.90;999.90;;;;;;;;;;5095611;28;21063;-81
2021/08/27 04:13:23;;;;;;;1999.90;999.90;;;;;;;;;;5101269;28;20550;-81
2021/08/27 04:15:51;;;;;;;1999.90;999.90;;;;;;;;;;5100764;28;20456;-84
2021/08/27 04:18:18;;;;;;;1999.90;999.90;;;;;;;;;;5101718;28;20536;-83
2021/08/27 04:20:45;;;;;;;1999.90;999.90;;;;;;;;;;5100307;28;20982;-82
2021/08/27 04:23:14;;;;;;;1999.90;999.90;;;;;;;;;;5099153;28;20938;-83
2021/08/27 04:25:41;;;;;;;1999.90;999.90;;;;;;;;;;5099905;28;20547;-83
2021/08/27 04:28:08;;;;;;;1999.90;999.90;;;;;;;;;;5099780;28;20457;-82
2021/08/27 04:30:36;;;;;;;1999.90;999.90;;;;;;;;;;5099271;28;20432;-83
2021/08/27 04:33:03;;;;;;;1999.90;999.90;;;;;;;;;;5099105;28;20487;-84
2021/08/27 04:35:30;;;;;;;1999.90;999.90;;;;;;;;;;5101582;28;21059;-83
2021/08/27 04:37:57;;;;;;;1999.90;999.90;;;;;;;;;;5103006;28;21064;-83
2021/08/27 04:40:26;;;;;;;1999.90;999.90;;;;;;;;;;5102576;28;20474;-84
2021/08/27 04:42:53;;;;;;;1999.90;999.90;;;;;;;;;;5103645;28;20444;-83
2021/08/27 04:45:20;;;;;;;1999.90;999.90;;;;;;;;;;5099930;28;21232;-84
2021/08/27 04:47:47;;;;;;;1999.90;999.90;;;;;;;;;;5083448;28;20511;-84
2021/08/27 04:50:15;;;;;;;1999.90;999.90;;;;;;;;;;5082738;28;20455;-83
2021/08/27 04:52:42;;;;;;;1999.90;999.90;;;;;;;;;;5091533;22;20497;-85
2021/08/27 04:55:09;;;;;;;1999.90;999.90;;;;;;;;;;5076086;28;20455;-85
2021/08/27 04:57:40;;;;;;;1999.90;999.90;;;;;;;;;;5076330;28;20448;-85
2021/08/27 05:00:08;;;;;;;1999.90;999.90;;;;;;;;;;5076402;28;20966;-85
2021/08/27 05:02:35;;;;;;;1999.90;999.90;;;;;;;;;;5076119;28;21006;-85
2021/08/27 05:05:03;;;;;;;1999.90;999.90;;;;;;;;;;5076996;28;20454;-86
2021/08/27 05:07:30;;;;;;;1999.90;999.90;;;;;;;;;;5076184;28;20454;-85
2021/08/27 05:09:57;;;;;;;1999.90;999.90;;;;;;;;;;5076394;28;20449;-85
2021/08/27 05:12:24;;;;;;;1999.90;999.90;;;;;;;;;;5075945;28;20498;-86
2021/08/27 05:14:52;;;;;;;1999.90;999.90;;;;;;;;;;5076057;28;20452;-86
2021/08/27 05:17:19;;;;;;;1999.90;999.90;;;;;;;;;;5075121;28;20976;-86
2021/08/27 05:19:46;;;;;;;1999.90;999.90;;;;;;;;;;5081827;28;20548;-86
2021/08/27 05:22:14;;;;;;;1999.90;999.90;;;;;;;;;;5079707;28;20469;-86
2021/08/27 05:24:41;;;;;;;1999.90;999.90;;;;;;;;;;5082443;28;20449;-86
2021/08/27 05:27:08;;;;;;;1999.90;999.90;;;;;;;;;;5077103;28;20454;-86
2021/08/27 05:29:35;;;;;;;1999.90;999.90;;;;;;;;;;5076922;28;20458;-85
2021/08/27 05:32:04;;;;;;;1999.90;999.90;;;;;;;;;;5076140;28;20987;-86
2021/08/27 05:34:31;;;;;;;1999.90;999.90;;;;;;;;;;5075660;28;20452;-86
2021/08/27 05:36:58;;;;;;;1999.90;999.90;;;;;;;;;;5075391;28;20970;-85
2021/08/27 05:39:28;;;;;;;1999.90;999.90;;;;;;;;;;5076220;28;20455;-85
2021/08/27 05:41:55;;;;;;;1999.90;999.90;;;;;;;;;;5075959;28;20506;-86
2021/08/27 05:44:22;;;;;;;1999.90;999.90;;;;;;;;;;5075384;28;20452;-85
2021/08/27 05:46:49;;;;;;;1999.90;999.90;;;;;;;;;;5075799;28;20451;-86
2021/08/27 05:49:18;;;;;;;1999.90;999.90;;;;;;;;;;5076416;28;20469;-85
2021/08/27 05:51:45;;;;;;;1999.90;999.90;;;;;;;;;;5077003;28;20908;-84
2021/08/27 05:54:12;;;;;;;1999.90;999.90;;;;;;;;;;5077477;28;21298;-84
2021/08/27 05:56:40;;;;;;;1999.90;999.90;;;;;;;;;;5075301;28;20447;-85
2021/08/27 05:59:07;;;;;;;1999.90;999.90;;;;;;;;;;5075761;28;20538;-86
2021/08/27 06:01:34;;;;;;;1999.90;999.90;;;;;;;;;;5074972;28;20580;-83
2021/08/27 06:04:01;;;;;;;1999.90;999.90;;;;;;;;;;5075065;28;20443;-85
2021/08/27 06:06:30;;;;;;;1999.90;999.90;;;;;;;;;;5076560;28;20971;-83
2021/08/27 06:08:57;;;;;;;1999.90;999.90;;;;;;;;;;5075508;28;20458;-84
2021/08/27 06:11:24;;;;;;;1999.90;999.90;;;;;;;;;;5075493;28;20487;-84
2021/08/27 06:13:51;;;;;;;1999.90;999.90;;;;;;;;;;5075272;28;20491;-85
2021/08/27 06:16:18;;;;;;;1999.90;999.90;;;;;;;;;;5074725;28;20455;-84
2021/08/27 06:18:45;;;;;;;1999.90;999.90;;;;;;;;;;5075433;28;20447;-85
2021/08/27 06:21:12;;;;;;;1999.90;999.90;;;;;;;;;;5081501;28;20478;-84
2021/08/27 06:23:41;;;;;;;1999.90;999.90;;;;;;;;;;5079908;28;20459;-84
2021/08/27 06:26:08;;;;;;;1999.90;999.90;;;;;;;;;;5082375;28;20477;-84
2021/08/27 06:28:35;;;;;;;1999.90;999.90;;;;;;;;;;5078691;28;20446;-84
2021/08/27 06:31:03;;;;;;;1999.90;999.90;;;;;;;;;;5074573;28;20832;-84
2021/08/27 06:33:31;;;;;;;1999.90;999.90;;;;;;;;;;5075646;28;20865;-84
2021/08/27 06:35:58;;;;;;;1999.90;999.90;;;;;;;;;;5073972;28;20459;-87
2021/08/27 06:38:25;;;;;;;1999.90;999.90;;;;;;;;;;5075782;28;20450;-84
2021/08/27 06:40:55;;;;;;;1999.90;999.90;;;;;;;;;;5060117;28;20467;-84
2021/08/27 06:43:22;;;;;;;1999.90;999.90;;;;;;;;;;5074472;28;20947;-84
2021/08/27 06:45:49;;;;;;;1999.90;999.90;;;;;;;;;;5075051;28;20446;-85
2021/08/27 06:48:17;;;;;;;1999.90;999.90;;;;;;;;;;5075328;28;20443;-83
2021/08/27 06:50:44;;;;;;;1999.90;999.90;;;;;;;;;;5077068;28;20836;-84
2021/08/27 06:53:11;;;;;;;1999.90;999.90;;;;;;;;;;5077710;28;20479;-84
2021/08/27 06:55:38;;;;;;;1999.90;999.90;;;;;;;;;;5084479;28;20460;-84
2021/08/27 06:58:07;;;;;;;1999.90;999.90;;;;;;;;;;5082914;28;20455;-87
2021/08/27 07:00:34;;;;;;;1999.90;999.90;;;;;;;;;;5080776;28;20449;-84
2021/08/27 07:03:02;;;;;;;1999.90;999.90;;;;;;;;;;5080033;28;20459;-85
2021/08/27 07:05:29;;;;;;;1999.90;999.90;;;;;;;;;;5079193;28;20463;-84
2021/08/27 07:07:56;;;;;;;1999.90;999.90;;;;;;;;;;5068493;28;20460;-85
2021/08/27 07:10:23;;;;;;;1999.90;999.90;;;;;;;;;;5065722;28;20533;-84
2021/08/27 07:12:51;;;;;;;1999.90;999.90;;;;;;;;;;5076862;28;20483;-85
2021/08/27 07:15:21;;;;;;;1999.90;999.90;;;;;;;;;;5080375;28;20454;-85
2021/08/27 07:17:48;;;;;;;1999.90;999.90;;;;;;;;;;5072201;28;20440;-84
2021/08/27 07:20:16;;;;;;;1999.90;999.90;;;;;;;;;;5082808;28;20975;-83
2021/08/27 07:22:43;;;;;;;1999.90;999.90;;;;;;;;;;5072657;28;20496;-83
2021/08/27 07:25:11;;;;;;;1999.90;999.90;;;;;;;;;;5079198;28;20457;-86
2021/08/27 07:27:38;;;;;;;1999.90;999.90;;;;;;;;;;5080401;28;20518;-84
2021/08/27 07:30:07;;;;;;;1999.90;999.90;;;;;;;;;;5075956;28;20980;-85
2021/08/27 07:32:35;;;;;;;1999.90;999.90;;;;;;;;;;5079230;28;20477;-83
2021/08/27 07:35:02;;;;;;;1999.90;999.90;;;;;;;;;;5081120;28;20445;-86
2021/08/27 07:37:29;;;;;;;1999.90;999.90;;;;;;;;;;5075748;28;20524;-86
2021/08/27 07:39:56;;;;;;;1999.90;999.90;;;;;;;;;;5066395;28;20461;-83
2021/08/27 07:42:23;;;;;;;1999.90;999.90;;;;;;;;;;5063387;28;20475;-85
2021/08/27 07:44:50;;;;;;;1999.90;999.90;;;;;;;;;;5065371;28;20449;-84
2021/08/27 07:47:18;;;;;;;1999.90;999.90;;;;;;;;;;5070516;28;20564;-85
2021/08/27 07:49:46;;;;;;;1999.90;999.90;;;;;;;;;;5065027;28;20523;-86
2021/08/27 07:52:13;;;;;;;1999.90;999.90;;;;;;;;;;5063011;28;20475;-84
2021/08/27 07:54:40;;;;;;;1999.90;999.90;;;;;;;;;;5063311;28;20480;-85
2021/08/27 07:57:07;;;;;;;1999.90;999.90;;;;;;;;;;5064211;28;20978;-83
2021/08/27 07:59:34;;;;;;;1999.90;999.90;;;;;;;;;;5070146;28;20463;-83
2021/08/27 08:02:01;;;;;;;1999.90;999.90;;;;;;;;;;5073418;28;20467;-83
2021/08/27 08:04:28;;;;;;;1999.90;999.90;;;;;;;;;;5082688;28;20435;-84
2021/08/27 08:06:57;;;;;;;1999.90;999.90;;;;;;;;;;5077418;28;20471;-84
2021/08/27 08:09:24;;;;;;;1999.90;999.90;;;;;;;;;;5077425;28;20456;-83
2021/08/27 08:11:52;;;;;;;1999.90;999.90;;;;;;;;;;5075961;28;20478;-83
2021/08/27 08:14:19;;;;;;;1999.90;999.90;;;;;;;;;;5076071;28;20489;-83
2021/08/27 08:16:46;;;;;;;1999.90;999.90;;;;;;;;;;5078485;28;20518;-82
2021/08/27 08:19:13;;;;;;;1999.90;999.90;;;;;;;;;;5081331;28;20464;-85
2021/08/27 08:21:40;;;;;;;1999.90;999.90;;;;;;;;;;5081890;28;20480;-84
2021/08/27 08:24:09;;;;;;;1999.90;999.90;;;;;;;;;;5085277;28;20508;-85
2021/08/27 08:26:36;;;;;;;1999.90;999.90;;;;;;;;;;5086720;28;20443;-83
2021/08/27 08:29:05;;;;;;;1999.90;999.90;;;;;;;;;;5083916;28;20441;-86
2021/08/27 08:31:32;;;;;;;1999.90;999.90;;;;;;;;;;5086856;28;20478;-84
2021/08/27 08:33:59;;;;;;;1999.90;999.90;;;;;;;;;;5086176;28;20490;-82
2021/08/27 08:36:26;;;;;;;1999.90;999.90;;;;;;;;;;5082116;28;20460;-85
2021/08/27 08:38:54;;;;;;;1999.90;999.90;;;;;;;;;;5083910;28;20479;-85
2021/08/27 08:41:22;;;;;;;1999.90;999.90;;;;;;;;;;5078215;28;20476;-84
2021/08/27 08:43:50;;;;;;;1999.90;999.90;;;;;;;;;;5078503;28;20450;-84
2021/08/27 08:46:17;;;;;;;1999.90;999.90;;;;;;;;;;5077177;28;20516;-87
2021/08/27 08:48:46;;;;;;;1999.90;999.90;;;;;;;;;;5075779;28;20476;-85
2021/08/27 08:51:14;;;;;;;1999.90;999.90;;;;;;;;;;5070396;28;20493;-85
2021/08/27 08:53:41;;;;;;;1999.90;999.90;;;;;;;;;;5081438;28;20474;-87
2021/08/27 08:56:10;;;;;;;1999.90;999.90;;;;;;;;;;5075708;28;20464;-86
2021/08/27 08:58:39;;;;;;;1999.90;999.90;;;;;;;;;;5085259;28;20457;-86
2021/08/27 09:01:07;;;;;;;1999.90;999.90;;;;;;;;;;5083225;28;21005;-84
2021/08/27 09:03:34;;;;;;;1999.90;999.90;;;;;;;;;;5085186;28;20506;-84
2021/08/27 09:06:01;;;;;;;1999.90;999.90;;;;;;;;;;5087859;28;20466;-88
2021/08/27 09:08:33;;;;;;;1999.90;999.90;;;;;;;;;;5076557;28;20466;-85
2021/08/27 09:11:00;;;;;;;1999.90;999.90;;;;;;;;;;5083596;28;21238;-86
2021/08/27 09:13:30;;;;;;;1999.90;999.90;;;;;;;;;;5078806;28;20551;-86
2021/08/27 09:16:05;;;;;;;1999.90;999.90;;;;;;;;;;5091316;28;20529;-86
2021/08/27 09:18:37;;;;;;;1999.90;999.90;;;;;;;;;;5079783;28;20453;-87
2021/08/27 09:21:24;;;;;;;1999.90;999.90;;;;;;;;;;5075341;28;20526;-84
2021/08/27 09:23:51;;;;;;;1999.90;999.90;;;;;;;;;;5082140;28;20449;-83
2021/08/27 09:26:33;;;;;;;1999.90;999.90;;;;;;;;;;5091073;28;20497;-86
2021/08/27 09:29:00;;;;;;;1999.90;999.90;;;;;;;;;;5091652;28;20498;-86
2021/08/27 09:31:33;;;;;;;1999.90;999.90;;;;;;;;;;5089500;28;20530;-84
2021/08/27 09:34:01;;;;;;;1999.90;999.90;;;;;;;;;;5089484;28;20482;-85
2021/08/27 09:36:30;;;;;;;1999.90;999.90;;;;;;;;;;5089513;28;20457;-85
2021/08/27 09:39:01;;;;;;;1999.90;999.90;;;;;;;;;;5091405;28;20541;-84
2021/08/27 09:41:29;;;;;;;1999.90;999.90;;;;;;;;;;5081341;28;20464;-84
2021/08/27 09:43:57;;;;;;;1999.90;999.90;;;;;;;;;;5066114;28;20514;-83
2021/08/27 09:46:31;;;;;;;1999.90;999.90;;;;;;;;;;5056799;28;20978;-83
2021/08/27 09:49:01;;;;;;;1999.90;999.90;;;;;;;;;;5065191;28;20455;-84
2021/08/27 09:51:41;;;;;;;1999.90;999.90;;;;;;;;;;5086397;28;20509;-83
2021/08/27 09:54:08;;;;;;;1999.90;999.90;;;;;;;;;;5090599;28;20493;-85
2021/08/27 09:56:45;;;;;;;1999.90;999.90;;;;;;;;;;5088108;28;20447;-86
2021/08/27 09:59:13;;;;;;;1999.90;999.90;;;;;;;;;;5076161;28;20540;-83
2021/08/27 10:01:47;;;;;;;1999.90;999.90;;;;;;;;;;5070855;28;20472;-83
2021/08/27 10:04:16;;;;;;;1999.90;999.90;;;;;;;;;;5069511;28;20506;-84
2021/08/27 10:06:43;;;;;;;1999.90;999.90;;;;;;;;;;5069683;28;20548;-84
2021/08/27 10:09:10;;;;;;;1999.90;999.90;;;;;;;;;;5067448;28;20450;-84
2021/08/27 10:11:38;;;;;;;1999.90;999.90;;;;;;;;;;5082785;28;20557;-85
2021/08/27 10:14:05;;;;;;;1999.90;999.90;;;;;;;;;;5090686;28;20481;-87
2021/08/27 10:16:32;;;;;;;1999.90;999.90;;;;;;;;;;5080127;28;20487;-86
2021/08/27 10:19:01;;;;;;;1999.90;999.90;;;;;;;;;;5086713;28;20458;-84
2021/08/27 10:21:31;;;;;;;1999.90;999.90;;;;;;;;;;5085431;28;20509;-84
2021/08/27 10:23:58;;;;;;;1999.90;999.90;;;;;;;;;;5082925;28;20460;-86
2021/08/27 10:26:26;;;;;;;1999.90;999.90;;;;;;;;;;5078558;28;20518;-84
2021/08/27 10:28:54;;;;;;;1999.90;999.90;;;;;;;;;;5076479;28;20440;-84
2021/08/27 10:31:40;;;;;;;1999.90;999.90;;;;;;;;;;5086372;28;20481;-85
2021/08/27 10:34:07;;;;;;;1999.90;999.90;;;;;;;;;;5068694;28;20480;-84
2021/08/27 10:36:48;;;;;;;1999.90;999.90;;;;;;;;;;5076495;28;20538;-84
2021/08/27 10:39:35;;;;;;;1999.90;999.90;;;;;;;;;;5078634;28;20450;-85
2021/08/27 10:42:02;;;;;;;1999.90;999.90;;;;;;;;;;5088374;28;20476;-85
2021/08/27 10:44:48;;;;;;;1999.90;999.90;;;;;;;;;;5092649;28;20434;-85
2021/08/27 10:47:16;;;;;;;1999.90;999.90;;;;;;;;;;5091393;28;20434;-85
2021/08/27 10:49:59;;;;;;;1999.90;999.90;;;;;;;;;;5088691;28;20439;-84
2021/08/27 10:52:32;;;;;;;1999.90;999.90;;;;;;;;;;5098151;22;20560;-86
2021/08/27 10:55:10;;;;;;;1999.90;999.90;;;;;;;;;;5073706;28;20557;-86
2021/08/27 10:57:44;;;;;;;1999.90;999.90;;;;;;;;;;5075099;28;20438;-85
2021/08/27 11:00:12;;;;;;;1999.90;999.90;;;;;;;;;;5074385;28;20455;-86
2021/08/27 11:02:52;;;;;;;1999.90;999.90;;;;;;;;;;5075250;28;20466;-86
2021/08/27 11:05:31;;;;;;;1999.90;999.90;;;;;;;;;;5079651;28;20446;-85
2021/08/27 11:08:02;;;;;;;1999.90;999.90;;;;;;;;;;5076742;28;20487;-85
2021/08/27 11:10:29;;;;;;;1999.90;999.90;;;;;;;;;;5077864;28;20489;-85
2021/08/27 11:13:00;;;;;;;1999.90;999.90;;;;;;;;;;5084673;28;20471;-86
2021/08/27 11:15:29;;;;;;;1999.90;999.90;;;;;;;;;;5077616;28;21021;-85
2021/08/27 11:18:29;;;;;;;1999.90;999.90;;;;;;;;;;5076446;28;20461;-85
2021/08/27 11:20:57;;;;;;;1999.90;999.90;;;;;;;;;;4992992;28;20866;-85
2021/08/27 11:23:25;;;;;;;1999.90;999.90;;;;;;;;;;5006376;28;20491;-85
2021/08/27 11:26:00;;;;;;;1999.90;999.90;;;;;;;;;;5045821;28;20487;-85
2021/08/27 11:28:28;;;;;;;1999.90;999.90;;;;;;;;;;5081426;28;20473;-85
2021/08/27 11:31:05;;;;;;;1999.90;999.90;;;;;;;;;;5076333;28;20461;-85
2021/08/27 11:33:52;;;;;;;1999.90;999.90;;;;;;;;;;5075614;28;20470;-84
2021/08/27 11:36:20;;;;;;;1999.90;999.90;;;;;;;;;;5075148;28;20526;-85
2021/08/27 11:38:53;;;;;;;1999.90;999.90;;;;;;;;;;5075998;28;20450;-85
2021/08/27 11:41:22;;;;;;;1999.90;999.90;;;;;;;;;;5075825;28;20541;-86
2021/08/27 11:43:57;;;;;;;1999.90;999.90;;;;;;;;;;5079317;28;20448;-86
2021/08/27 11:46:27;;;;;;;1999.90;999.90;;;;;;;;;;5078011;28;20537;-85
2021/08/27 11:48:57;;;;;;;1999.90;999.90;;;;;;;;;;5075095;28;20444;-85
2021/08/27 11:51:26;;;;;;;1999.90;999.90;;;;;;;;;;5075519;28;20447;-86
2021/08/27 11:53:55;;;;;;;1999.90;999.90;;;;;;;;;;5074526;28;20457;-85
2021/08/27 11:56:23;;;;;;;1999.90;999.90;;;;;;;;;;5074247;28;20497;-85
2021/08/27 11:58:50;;;;;;;1999.90;999.90;;;;;;;;;;5077625;28;20456;-85
2021/08/27 12:01:27;;;;;;;1999.90;999.90;;;;;;;;;;5075269;28;20675;-85
2021/08/27 12:03:54;;;;;;;1999.90;999.90;;;;;;;;;;5076252;28;20488;-85
2021/08/27 12:06:21;;;;;;;1999.90;999.90;;;;;;;;;;5075436;28;20527;-86
2021/08/27 12:08:49;;;;;;;1999.90;999.90;;;;;;;;;;5073404;28;21261;-86
2021/08/27 12:11:29;;;;;;;1999.90;999.90;;;;;;;;;;5073995;28;20450;-85
2021/08/27 12:13:56;;;;;;;1999.90;999.90;;;;;;;;;;5074118;28;20465;-85
2021/08/27 12:16:23;;;;;;;1999.90;999.90;;;;;;;;;;5073775;28;20462;-86
2021/08/27 12:18:51;;;;;;;1999.90;999.90;;;;;;;;;;5073724;28;20993;-86
2021/08/27 12:21:23;;;;;;;1999.90;999.90;;;;;;;;;;5073497;28;20559;-85
2021/08/27 12:24:01;;;;;;;1999.90;999.90;;;;;;;;;;5074308;28;20447;-86
2021/08/27 12:26:32;;;;;;;1999.90;999.90;;;;;;;;;;5074349;28;20436;-86
2021/08/27 12:29:00;;;;;;;1999.90;999.90;;;;;;;;;;5074794;28;20463;-87
2021/08/27 12:31:36;;;;;;;1999.90;999.90;;;;;;;;;;5088422;28;20461;-86
2021/08/27 12:34:04;;;;;;;1999.90;999.90;;;;;;;;;;5094691;28;20430;-86
2021/08/27 12:36:44;;;;;;;1999.90;999.90;;;;;;;;;;5087381;28;20457;-87
2021/08/27 12:39:11;;;;;;;1999.90;999.90;;;;;;;;;;5082785;28;20465;-86
2021/08/27 12:41:40;;;;;;;1999.90;999.90;;;;;;;;;;5078311;28;20846;-85
2021/08/27 12:44:10;;;;;;;1999.90;999.90;;;;;;;;;;5078690;28;21192;-86
2021/08/27 12:46:39;;;;;;;1999.90;999.90;;;;;;;;;;5078560;28;20835;-85
2021/08/27 12:49:13;;;;;;;1999.90;999.90;;;;;;;;;;5079644;28;20450;-86
2021/08/27 12:51:41;;;;;;;1999.90;999.90;;;;;;;;;;5079226;28;20861;-86
2021/08/27 12:54:08;;;;;;;1999.90;999.90;;;;;;;;;;5080706;28;20542;-85
2021/08/27 12:56:36;;;;;;;1999.90;999.90;;;;;;;;;;5081237;28;20454;-85
2021/08/27 12:59:16;;;;;;;1999.90;999.90;;;;;;;;;;5079671;28;20520;-85
2021/08/27 13:01:44;;;;;;;1999.90;999.90;;;;;;;;;;5082380;28;20451;-86
2021/08/27 13:04:11;;;;;;;1999.90;999.90;;;;;;;;;;5081084;28;20458;-86
2021/08/27 13:06:39;;;;;;;1999.90;999.90;;;;;;;;;;5083522;28;20832;-85
2021/08/27 13:09:08;;;;;;;1999.90;999.90;;;;;;;;;;5078894;28;20447;-86
2021/08/27 13:11:45;;;;;;;1999.90;999.90;;;;;;;;;;5077892;28;20503;-85
2021/08/27 13:14:18;;;;;;;1999.90;999.90;;;;;;;;;;5079086;28;20453;-86
2021/08/27 13:16:50;;;;;;;1999.90;999.90;;;;;;;;;;5078205;28;20455;-84
2021/08/27 13:19:18;;;;;;;1999.90;999.90;;;;;;;;;;5079494;28;20442;-85
2021/08/27 13:21:45;;;;;;;1999.90;999.90;;;;;;;;;;5077916;28;20480;-84
2021/08/27 13:24:13;;;;;;;1999.90;999.90;;;;;;;;;;5079529;28;20550;-84
2021/08/27 13:26:41;;;;;;;1999.90;999.90;;;;;;;;;;5079359;28;20459;-85
2021/08/27 13:29:08;;;;;;;1999.90;999.90;;;;;;;;;;5078785;28;20533;-86
2021/08/27 13:31:37;;;;;;;1999.90;999.90;;;;;;;;;;5077493;28;20538;-86
2021/08/27 13:34:04;;;;;;;1999.90;999.90;;;;;;;;;;5077223;28;20447;-85
2021/08/27 13:36:32;;;;;;;1999.90;999.90;;;;;;;;;;5077022;28;20494;-85
2021/08/27 13:38:59;;;;;;;1999.90;999.90;;;;;;;;;;5078767;28;20469;-85
2021/08/27 13:41:26;;;;;;;1999.90;999.90;;;;;;;;;;5076446;28;20523;-86
2021/08/27 13:43:53;;;;;;;1999.90;999.90;;;;;;;;;;5075995;28;20451;-86
2021/08/27 13:46:20;;;;;;;1999.90;999.90;;;;;;;;;;5078631;28;20443;-86
2021/08/27 13:48:49;;;;;;;1999.90;999.90;;;;;;;;;;5077362;28;20453;-87
2021/08/27 13:51:16;;;;;;;1999.90;999.90;;;;;;;;;;5075666;28;20865;-86